Errol, United Kingdom
Current Conditions -  °F | °C
As of 12:50 PM on Tuesday 21 Oct 2014 (Local Time) from EGPN Reporting Station
Few Clouds Few Clouds  
Wind Chill: 50°   Ceiling: Unl
Heat Index: 50°   Visibility: 6mi
Dew Point: 36°   Wind: 25mph
Humidity: 58%   Direction: 280°W
Pressure: 29.35"   Gusts: 39mph
Location:  56.39°N, 3.21°W
Report Text: EGPN 211150Z 28022G34KT 250V310 9999 FEW033 10/02 Q0994
Loading
Personal Weather Stations






























Interactive Weather Map
Tropical Storm Tracking
New forecast layout! Learn more

10-Day Weather Forecast

Advertisements
Track Severe Weather on mobile